sensor_id;sensor_type;location;lat;lon;timestamp;P1;durP1;ratioP1;P2;durP2;ratioP2
57752;SDS011;43583;53.132;6.574;2022-08-01T00:00:34;9.18;;;5.25;;
57752;SDS011;43583;53.132;6.574;2022-08-01T00:03:00;6.53;;;5.47;;
57752;SDS011;43583;53.132;6.574;2022-08-01T00:05:25;8.65;;;4.75;;
57752;SDS011;43583;53.132;6.574;2022-08-01T00:07:51;8.45;;;5.15;;
57752;SDS011;43583;53.132;6.574;2022-08-01T00:10:17;9.32;;;5.10;;
57752;SDS011;43583;53.132;6.574;2022-08-01T00:12:43;7.75;;;3.80;;
57752;SDS011;43583;53.132;6.574;2022-08-01T00:15:10;9.25;;;4.63;;
57752;SDS011;43583;53.132;6.574;2022-08-01T00:17:37;8.02;;;3.58;;
57752;SDS011;43583;53.132;6.574;2022-08-01T00:20:03;8.00;;;3.92;;
57752;SDS011;43583;53.132;6.574;2022-08-01T00:22:31;6.05;;;3.33;;
57752;SDS011;43583;53.132;6.574;2022-08-01T00:24:57;4.50;;;2.88;;
57752;SDS011;43583;53.132;6.574;2022-08-01T00:27:23;5.35;;;4.38;;
57752;SDS011;43583;53.132;6.574;2022-08-01T00:29:48;5.82;;;3.15;;
57752;SDS011;43583;53.132;6.574;2022-08-01T00:32:14;8.43;;;3.10;;
57752;SDS011;43583;53.132;6.574;2022-08-01T00:34:40;7.25;;;2.53;;
57752;SDS011;43583;53.132;6.574;2022-08-01T00:37:05;3.50;;;1.83;;
57752;SDS011;43583;53.132;6.574;2022-08-01T00:39:31;3.00;;;1.95;;
57752;SDS011;43583;53.132;6.574;2022-08-01T00:41:58;3.47;;;1.48;;
57752;SDS011;43583;53.132;6.574;2022-08-01T00:44:24;2.90;;;1.45;;
57752;SDS011;43583;53.132;6.574;2022-08-01T00:46:49;4.72;;;2.17;;
57752;SDS011;43583;53.132;6.574;2022-08-01T00:49:15;7.22;;;1.70;;
57752;SDS011;43583;53.132;6.574;2022-08-01T00:51:41;3.35;;;1.95;;
57752;SDS011;43583;53.132;6.574;2022-08-01T00:54:07;3.35;;;1.42;;
57752;SDS011;43583;53.132;6.574;2022-08-01T00:56:32;3.45;;;1.20;;
57752;SDS011;43583;53.132;6.574;2022-08-01T00:58:58;4.80;;;1.45;;
57752;SDS011;43583;53.132;6.574;2022-08-01T01:01:24;3.30;;;1.48;;
57752;SDS011;43583;53.132;6.574;2022-08-01T01:03:50;3.22;;;1.20;;
57752;SDS011;43583;53.132;6.574;2022-08-01T01:06:27;6.90;;;1.48;;
57752;SDS011;43583;53.132;6.574;2022-08-01T01:12:15;3.00;;;1.42;;
57752;SDS011;43583;53.132;6.574;2022-08-01T01:14:44;2.85;;;1.70;;
57752;SDS011;43583;53.132;6.574;2022-08-01T01:17:16;2.65;;;1.83;;
57752;SDS011;43583;53.132;6.574;2022-08-01T01:19:45;1.38;;;1.20;;
57752;SDS011;43583;53.132;6.574;2022-08-01T01:25:17;2.95;;;1.38;;
57752;SDS011;43583;53.132;6.574;2022-08-01T01:30:48;5.70;;;1.50;;
57752;SDS011;43583;53.132;6.574;2022-08-01T01:33:17;5.78;;;1.30;;
57752;SDS011;43583;53.132;6.574;2022-08-01T01:35:46;3.05;;;1.23;;
57752;SDS011;43583;53.132;6.574;2022-08-01T01:38:18;7.60;;;2.35;;
57752;SDS011;43583;53.132;6.574;2022-08-01T01:40:46;2.55;;;0.73;;
57752;SDS011;43583;53.132;6.574;2022-08-01T01:43:14;2.28;;;0.50;;
57752;SDS011;43583;53.132;6.574;2022-08-01T01:45:40;3.45;;;0.40;;
57752;SDS011;43583;53.132;6.574;2022-08-01T01:48:09;6.20;;;0.90;;
57752;SDS011;43583;53.132;6.574;2022-08-01T01:50:37;2.50;;;0.40;;
57752;SDS011;43583;53.132;6.574;2022-08-01T01:53:04;3.05;;;0.68;;
57752;SDS011;43583;53.132;6.574;2022-08-01T01:55:31;3.15;;;0.70;;
57752;SDS011;43583;53.132;6.574;2022-08-01T01:57:59;2.92;;;0.50;;
57752;SDS011;43583;53.132;6.574;2022-08-01T02:00:25;3.38;;;0.60;;
57752;SDS011;43583;53.132;6.574;2022-08-01T02:02:53;2.88;;;0.47;;
57752;SDS011;43583;53.132;6.574;2022-08-01T02:05:21;4.63;;;0.65;;
57752;SDS011;43583;53.132;6.574;2022-08-01T02:07:48;3.03;;;0.68;;
57752;SDS011;43583;53.132;6.574;2022-08-01T02:10:15;3.90;;;0.88;;
57752;SDS011;43583;53.132;6.574;2022-08-01T02:12:43;4.63;;;0.60;;
57752;SDS011;43583;53.132;6.574;2022-08-01T02:15:11;1.13;;;0.40;;
57752;SDS011;43583;53.132;6.574;2022-08-01T02:17:40;2.75;;;0.50;;
57752;SDS011;43583;53.132;6.574;2022-08-01T02:20:08;3.83;;;0.40;;
57752;SDS011;43583;53.132;6.574;2022-08-01T02:22:36;6.82;;;0.50;;
57752;SDS011;43583;53.132;6.574;2022-08-01T02:27:53;3.67;;;1.20;;
57752;SDS011;43583;53.132;6.574;2022-08-01T02:30:26;3.50;;;0.70;;
57752;SDS011;43583;53.132;6.574;2022-08-01T02:33:08;6.38;;;0.40;;
57752;SDS011;43583;53.132;6.574;2022-08-01T02:35:51;4.68;;;0.38;;
57752;SDS011;43583;53.132;6.574;2022-08-01T02:38:22;2.17;;;0.37;;
57752;SDS011;43583;53.132;6.574;2022-08-01T02:40:50;1.25;;;0.30;;
57752;SDS011;43583;53.132;6.574;2022-08-01T02:43:18;5.80;;;0.60;;
57752;SDS011;43583;53.132;6.574;2022-08-01T02:45:49;3.75;;;0.57;;
57752;SDS011;43583;53.132;6.574;2022-08-01T02:48:18;3.85;;;0.65;;
57752;SDS011;43583;53.132;6.574;2022-08-01T02:50:47;4.68;;;0.63;;
57752;SDS011;43583;53.132;6.574;2022-08-01T02:53:14;5.45;;;0.57;;
57752;SDS011;43583;53.132;6.574;2022-08-01T02:55:43;3.80;;;0.38;;
57752;SDS011;43583;53.132;6.574;2022-08-01T02:58:12;3.50;;;0.40;;
57752;SDS011;43583;53.132;6.574;2022-08-01T03:00:41;5.20;;;0.40;;
57752;SDS011;43583;53.132;6.574;2022-08-01T03:03:09;2.45;;;0.30;;
57752;SDS011;43583;53.132;6.574;2022-08-01T03:05:35;5.80;;;0.40;;
57752;SDS011;43583;53.132;6.574;2022-08-01T03:08:04;3.20;;;0.50;;
57752;SDS011;43583;53.132;6.574;2022-08-01T03:10:32;6.65;;;0.55;;
57752;SDS011;43583;53.132;6.574;2022-08-01T03:13:00;3.70;;;0.80;;
57752;SDS011;43583;53.132;6.574;2022-08-01T03:15:27;9.65;;;1.17;;
57752;SDS011;43583;53.132;6.574;2022-08-01T03:17:55;6.22;;;0.80;;
57752;SDS011;43583;53.132;6.574;2022-08-01T03:20:22;5.25;;;0.82;;
57752;SDS011;43583;53.132;6.574;2022-08-01T03:22:50;7.15;;;0.77;;
57752;SDS011;43583;53.132;6.574;2022-08-01T03:25:18;3.53;;;0.75;;
57752;SDS011;43583;53.132;6.574;2022-08-01T03:27:45;8.50;;;1.45;;
57752;SDS011;43583;53.132;6.574;2022-08-01T03:30:16;4.60;;;1.27;;
57752;SDS011;43583;53.132;6.574;2022-08-01T03:32:42;5.70;;;1.23;;
57752;SDS011;43583;53.132;6.574;2022-08-01T03:35:07;8.35;;;1.30;;
57752;SDS011;43583;53.132;6.574;2022-08-01T03:37:34;7.47;;;1.40;;
57752;SDS011;43583;53.132;6.574;2022-08-01T03:40:07;6.53;;;0.95;;
57752;SDS011;43583;53.132;6.574;2022-08-01T03:42:45;5.80;;;0.98;;
57752;SDS011;43583;53.132;6.574;2022-08-01T03:45:27;7.80;;;1.02;;
57752;SDS011;43583;53.132;6.574;2022-08-01T03:48:01;4.38;;;0.93;;
57752;SDS011;43583;53.132;6.574;2022-08-01T03:50:30;8.23;;;1.50;;
57752;SDS011;43583;53.132;6.574;2022-08-01T03:52:59;6.88;;;1.00;;
57752;SDS011;43583;53.132;6.574;2022-08-01T03:55:26;6.38;;;0.98;;
57752;SDS011;43583;53.132;6.574;2022-08-01T03:57:52;8.50;;;1.02;;
57752;SDS011;43583;53.132;6.574;2022-08-01T04:00:19;7.25;;;1.10;;
57752;SDS011;43583;53.132;6.574;2022-08-01T04:02:45;5.75;;;0.93;;
57752;SDS011;43583;53.132;6.574;2022-08-01T04:05:17;6.72;;;1.35;;
57752;SDS011;43583;53.132;6.574;2022-08-01T04:07:47;5.97;;;1.10;;
57752;SDS011;43583;53.132;6.574;2022-08-01T04:10:20;5.45;;;1.08;;
57752;SDS011;43583;53.132;6.574;2022-08-01T04:12:45;8.10;;;1.20;;
57752;SDS011;43583;53.132;6.574;2022-08-01T04:15:11;4.10;;;1.00;;
57752;SDS011;43583;53.132;6.574;2022-08-01T04:17:36;7.45;;;1.20;;
57752;SDS011;43583;53.132;6.574;2022-08-01T04:20:02;3.90;;;0.90;;
57752;SDS011;43583;53.132;6.574;2022-08-01T04:22:28;4.63;;;1.13;;
57752;SDS011;43583;53.132;6.574;2022-08-01T04:24:55;9.70;;;1.25;;
57752;SDS011;43583;53.132;6.574;2022-08-01T04:27:27;7.20;;;1.90;;
57752;SDS011;43583;53.132;6.574;2022-08-01T04:29:56;7.45;;;1.27;;
57752;SDS011;43583;53.132;6.574;2022-08-01T04:32:23;3.97;;;1.08;;
57752;SDS011;43583;53.132;6.574;2022-08-01T04:34:52;4.70;;;0.80;;
57752;SDS011;43583;53.132;6.574;2022-08-01T04:37:20;5.80;;;0.98;;
57752;SDS011;43583;53.132;6.574;2022-08-01T04:39:48;4.13;;;0.90;;
57752;SDS011;43583;53.132;6.574;2022-08-01T04:42:16;4.53;;;1.23;;
57752;SDS011;43583;53.132;6.574;2022-08-01T04:44:42;4.10;;;1.13;;
57752;SDS011;43583;53.132;6.574;2022-08-01T04:47:07;3.95;;;0.73;;
57752;SDS011;43583;53.132;6.574;2022-08-01T04:49:34;11.05;;;1.73;;
57752;SDS011;43583;53.132;6.574;2022-08-01T04:52:01;9.63;;;0.98;;
57752;SDS011;43583;53.132;6.574;2022-08-01T04:54:27;5.00;;;0.85;;
57752;SDS011;43583;53.132;6.574;2022-08-01T04:56:54;8.00;;;1.00;;
57752;SDS011;43583;53.132;6.574;2022-08-01T04:59:24;5.60;;;0.82;;
57752;SDS011;43583;53.132;6.574;2022-08-01T05:02:06;8.85;;;0.82;;
57752;SDS011;43583;53.132;6.574;2022-08-01T05:04:38;10.02;;;1.27;;
57752;SDS011;43583;53.132;6.574;2022-08-01T05:07:05;8.90;;;1.10;;
57752;SDS011;43583;53.132;6.574;2022-08-01T05:09:31;7.35;;;1.05;;
57752;SDS011;43583;53.132;6.574;2022-08-01T05:12:00;10.30;;;0.90;;
57752;SDS011;43583;53.132;6.574;2022-08-01T05:14:27;7.50;;;0.68;;
57752;SDS011;43583;53.132;6.574;2022-08-01T05:16:53;9.18;;;0.95;;
57752;SDS011;43583;53.132;6.574;2022-08-01T05:19:19;7.70;;;0.95;;
57752;SDS011;43583;53.132;6.574;2022-08-01T05:21:45;16.23;;;2.35;;
57752;SDS011;43583;53.132;6.574;2022-08-01T05:24:11;3.47;;;0.63;;
57752;SDS011;43583;53.132;6.574;2022-08-01T05:26:37;6.22;;;0.63;;
57752;SDS011;43583;53.132;6.574;2022-08-01T05:29:03;10.85;;;0.95;;
57752;SDS011;43583;53.132;6.574;2022-08-01T05:31:29;7.50;;;0.75;;
57752;SDS011;43583;53.132;6.574;2022-08-01T05:33:56;8.98;;;0.70;;
57752;SDS011;43583;53.132;6.574;2022-08-01T05:36:21;7.35;;;1.25;;
57752;SDS011;43583;53.132;6.574;2022-08-01T05:38:47;9.43;;;1.48;;
57752;SDS011;43583;53.132;6.574;2022-08-01T05:41:12;6.63;;;1.08;;
57752;SDS011;43583;53.132;6.574;2022-08-01T05:43:38;7.63;;;1.08;;
57752;SDS011;43583;53.132;6.574;2022-08-01T05:46:03;8.93;;;1.38;;
57752;SDS011;43583;53.132;6.574;2022-08-01T05:48:29;11.88;;;1.33;;
57752;SDS011;43583;53.132;6.574;2022-08-01T05:50:55;10.10;;;1.48;;
57752;SDS011;43583;53.132;6.574;2022-08-01T05:53:20;10.45;;;1.55;;
57752;SDS011;43583;53.132;6.574;2022-08-01T05:55:46;11.57;;;1.70;;
57752;SDS011;43583;53.132;6.574;2022-08-01T05:58:11;6.88;;;1.02;;
57752;SDS011;43583;53.132;6.574;2022-08-01T06:00:37;10.20;;;0.82;;
57752;SDS011;43583;53.132;6.574;2022-08-01T06:03:03;10.55;;;1.60;;
57752;SDS011;43583;53.132;6.574;2022-08-01T06:05:28;6.95;;;1.20;;
57752;SDS011;43583;53.132;6.574;2022-08-01T06:07:54;11.50;;;1.15;;
57752;SDS011;43583;53.132;6.574;2022-08-01T06:10:19;10.35;;;1.50;;
57752;SDS011;43583;53.132;6.574;2022-08-01T06:12:45;9.80;;;1.33;;
57752;SDS011;43583;53.132;6.574;2022-08-01T06:15:11;15.10;;;1.75;;
57752;SDS011;43583;53.132;6.574;2022-08-01T06:17:37;9.00;;;0.85;;
57752;SDS011;43583;53.132;6.574;2022-08-01T06:20:04;9.27;;;1.60;;
57752;SDS011;43583;53.132;6.574;2022-08-01T06:22:31;11.65;;;1.10;;
57752;SDS011;43583;53.132;6.574;2022-08-01T06:24:56;10.18;;;1.25;;
57752;SDS011;43583;53.132;6.574;2022-08-01T06:27:22;8.02;;;0.85;;
57752;SDS011;43583;53.132;6.574;2022-08-01T06:29:49;5.82;;;0.77;;
57752;SDS011;43583;53.132;6.574;2022-08-01T06:32:18;4.80;;;0.70;;
57752;SDS011;43583;53.132;6.574;2022-08-01T06:34:44;9.27;;;0.68;;
57752;SDS011;43583;53.132;6.574;2022-08-01T06:37:09;8.05;;;0.98;;
57752;SDS011;43583;53.132;6.574;2022-08-01T06:39:38;7.60;;;1.15;;
57752;SDS011;43583;53.132;6.574;2022-08-01T06:42:03;10.73;;;1.77;;
57752;SDS011;43583;53.132;6.574;2022-08-01T06:44:29;9.75;;;0.88;;
57752;SDS011;43583;53.132;6.574;2022-08-01T06:46:54;8.68;;;1.02;;
57752;SDS011;43583;53.132;6.574;2022-08-01T06:49:20;6.78;;;0.93;;
57752;SDS011;43583;53.132;6.574;2022-08-01T06:51:45;7.82;;;1.20;;
57752;SDS011;43583;53.132;6.574;2022-08-01T06:54:11;7.43;;;1.05;;
57752;SDS011;43583;53.132;6.574;2022-08-01T06:56:37;9.65;;;1.00;;
57752;SDS011;43583;53.132;6.574;2022-08-01T06:59:02;7.50;;;0.88;;
57752;SDS011;43583;53.132;6.574;2022-08-01T07:01:28;9.68;;;1.10;;
57752;SDS011;43583;53.132;6.574;2022-08-01T07:03:55;7.53;;;0.70;;
57752;SDS011;43583;53.132;6.574;2022-08-01T07:06:21;12.63;;;1.10;;
57752;SDS011;43583;53.132;6.574;2022-08-01T07:08:48;8.90;;;0.85;;
57752;SDS011;43583;53.132;6.574;2022-08-01T07:11:14;6.68;;;1.00;;
57752;SDS011;43583;53.132;6.574;2022-08-01T07:13:39;8.23;;;0.70;;
57752;SDS011;43583;53.132;6.574;2022-08-01T07:16:05;10.02;;;1.25;;
57752;SDS011;43583;53.132;6.574;2022-08-01T07:18:31;9.07;;;0.77;;
57752;SDS011;43583;53.132;6.574;2022-08-01T07:20:56;8.70;;;0.80;;
57752;SDS011;43583;53.132;6.574;2022-08-01T07:23:22;7.13;;;0.50;;
57752;SDS011;43583;53.132;6.574;2022-08-01T07:25:48;7.32;;;0.80;;
57752;SDS011;43583;53.132;6.574;2022-08-01T07:28:15;6.25;;;0.60;;
57752;SDS011;43583;53.132;6.574;2022-08-01T07:30:41;7.30;;;0.77;;
57752;SDS011;43583;53.132;6.574;2022-08-01T07:33:09;9.60;;;1.23;;
57752;SDS011;43583;53.132;6.574;2022-08-01T07:35:34;5.43;;;0.60;;
57752;SDS011;43583;53.132;6.574;2022-08-01T07:38:03;11.43;;;1.83;;
57752;SDS011;43583;53.132;6.574;2022-08-01T07:40:29;12.00;;;1.45;;
57752;SDS011;43583;53.132;6.574;2022-08-01T07:42:55;8.30;;;0.90;;
57752;SDS011;43583;53.132;6.574;2022-08-01T07:45:20;4.50;;;0.73;;
57752;SDS011;43583;53.132;6.574;2022-08-01T07:47:46;9.88;;;0.90;;
57752;SDS011;43583;53.132;6.574;2022-08-01T07:50:14;3.80;;;0.70;;
57752;SDS011;43583;53.132;6.574;2022-08-01T07:52:40;2.65;;;0.63;;
57752;SDS011;43583;53.132;6.574;2022-08-01T07:55:06;5.60;;;0.50;;
57752;SDS011;43583;53.132;6.574;2022-08-01T07:57:33;7.07;;;0.80;;
57752;SDS011;43583;53.132;6.574;2022-08-01T07:59:58;7.43;;;0.55;;
57752;SDS011;43583;53.132;6.574;2022-08-01T08:02:24;5.00;;;0.52;;
57752;SDS011;43583;53.132;6.574;2022-08-01T08:04:49;5.18;;;0.38;;
57752;SDS011;43583;53.132;6.574;2022-08-01T08:07:15;3.42;;;0.55;;
57752;SDS011;43583;53.132;6.574;2022-08-01T08:09:40;9.38;;;0.95;;
57752;SDS011;43583;53.132;6.574;2022-08-01T08:12:06;9.30;;;0.40;;
57752;SDS011;43583;53.132;6.574;2022-08-01T08:14:32;4.03;;;0.30;;
57752;SDS011;43583;53.132;6.574;2022-08-01T08:16:57;5.50;;;0.30;;
57752;SDS011;43583;53.132;6.574;2022-08-01T08:19:23;5.75;;;0.40;;
57752;SDS011;43583;53.132;6.574;2022-08-01T08:21:48;4.82;;;0.60;;
57752;SDS011;43583;53.132;6.574;2022-08-01T08:24:14;3.90;;;0.65;;
57752;SDS011;43583;53.132;6.574;2022-08-01T08:26:46;3.28;;;0.30;;
57752;SDS011;43583;53.132;6.574;2022-08-01T08:29:15;5.85;;;0.63;;
57752;SDS011;43583;53.132;6.574;2022-08-01T08:31:41;5.30;;;0.25;;
57752;SDS011;43583;53.132;6.574;2022-08-01T08:34:07;6.35;;;0.22;;
57752;SDS011;43583;53.132;6.574;2022-08-01T08:36:32;3.28;;;0.40;;
57752;SDS011;43583;53.132;6.574;2022-08-01T08:38:58;4.35;;;0.30;;
57752;SDS011;43583;53.132;6.574;2022-08-01T08:41:29;3.67;;;0.30;;
57752;SDS011;43583;53.132;6.574;2022-08-01T08:43:56;4.47;;;0.20;;
57752;SDS011;43583;53.132;6.574;2022-08-01T08:46:24;3.05;;;0.38;;
57752;SDS011;43583;53.132;6.574;2022-08-01T08:48:51;5.80;;;1.10;;
57752;SDS011;43583;53.132;6.574;2022-08-01T08:51:17;3.95;;;0.20;;
57752;SDS011;43583;53.132;6.574;2022-08-01T08:53:44;3.88;;;0.40;;
57752;SDS011;43583;53.132;6.574;2022-08-01T08:56:12;2.20;;;0.20;;
57752;SDS011;43583;53.132;6.574;2022-08-01T08:58:39;3.97;;;0.40;;
57752;SDS011;43583;53.132;6.574;2022-08-01T09:01:08;4.68;;;0.40;;
57752;SDS011;43583;53.132;6.574;2022-08-01T09:03:35;3.40;;;0.30;;
57752;SDS011;43583;53.132;6.574;2022-08-01T09:06:01;2.80;;;0.30;;
57752;SDS011;43583;53.132;6.574;2022-08-01T09:08:27;4.18;;;0.30;;
57752;SDS011;43583;53.132;6.574;2022-08-01T09:10:53;3.20;;;0.40;;
57752;SDS011;43583;53.132;6.574;2022-08-01T09:13:19;2.75;;;0.30;;
57752;SDS011;43583;53.132;6.574;2022-08-01T09:15:51;2.60;;;0.20;;
57752;SDS011;43583;53.132;6.574;2022-08-01T09:18:34;2.22;;;0.25;;
57752;SDS011;43583;53.132;6.574;2022-08-01T09:23:34;3.70;;;0.35;;
57752;SDS011;43583;53.132;6.574;2022-08-01T09:26:04;5.70;;;0.50;;
57752;SDS011;43583;53.132;6.574;2022-08-01T09:28:31;5.40;;;0.50;;
57752;SDS011;43583;53.132;6.574;2022-08-01T09:30:57;3.03;;;0.43;;
57752;SDS011;43583;53.132;6.574;2022-08-01T09:33:23;1.80;;;0.10;;
57752;SDS011;43583;53.132;6.574;2022-08-01T09:35:56;3.40;;;0.20;;
57752;SDS011;43583;53.132;6.574;2022-08-01T09:38:23;4.13;;;0.40;;
57752;SDS011;43583;53.132;6.574;2022-08-01T09:40:53;6.22;;;0.20;;
57752;SDS011;43583;53.132;6.574;2022-08-01T09:43:21;3.20;;;0.47;;
57752;SDS011;43583;53.132;6.574;2022-08-01T09:45:49;3.42;;;0.40;;
57752;SDS011;43583;53.132;6.574;2022-08-01T09:48:15;2.00;;;0.20;;
57752;SDS011;43583;53.132;6.574;2022-08-01T09:50:48;6.00;;;0.20;;
57752;SDS011;43583;53.132;6.574;2022-08-01T09:53:15;4.97;;;0.45;;
57752;SDS011;43583;53.132;6.574;2022-08-01T09:55:42;5.35;;;0.30;;
57752;SDS011;43583;53.132;6.574;2022-08-01T09:58:09;1.83;;;0.28;;
57752;SDS011;43583;53.132;6.574;2022-08-01T10:00:37;4.07;;;0.20;;
57752;SDS011;43583;53.132;6.574;2022-08-01T10:03:23;3.03;;;0.13;;
57752;SDS011;43583;53.132;6.574;2022-08-01T10:05:50;3.60;;;0.30;;
57752;SDS011;43583;53.132;6.574;2022-08-01T10:08:18;2.13;;;0.40;;
57752;SDS011;43583;53.132;6.574;2022-08-01T10:13:32;2.45;;;0.10;;
57752;SDS011;43583;53.132;6.574;2022-08-01T10:15:58;2.22;;;0.45;;
57752;SDS011;43583;53.132;6.574;2022-08-01T10:18:25;2.92;;;0.20;;
57752;SDS011;43583;53.132;6.574;2022-08-01T10:20:53;4.95;;;0.20;;
57752;SDS011;43583;53.132;6.574;2022-08-01T10:23:19;4.25;;;0.20;;
57752;SDS011;43583;53.132;6.574;2022-08-01T10:25:46;4.28;;;0.20;;
57752;SDS011;43583;53.132;6.574;2022-08-01T10:28:13;2.20;;;0.20;;
57752;SDS011;43583;53.132;6.574;2022-08-01T10:30:41;4.10;;;0.20;;
57752;SDS011;43583;53.132;6.574;2022-08-01T10:33:08;1.60;;;0.13;;
57752;SDS011;43583;53.132;6.574;2022-08-01T10:35:35;6.13;;;0.30;;
57752;SDS011;43583;53.132;6.574;2022-08-01T10:38:01;2.25;;;0.20;;
57752;SDS011;43583;53.132;6.574;2022-08-01T10:40:27;7.85;;;0.93;;
57752;SDS011;43583;53.132;6.574;2022-08-01T10:42:54;4.15;;;0.30;;
57752;SDS011;43583;53.132;6.574;2022-08-01T10:45:20;4.78;;;0.13;;
57752;SDS011;43583;53.132;6.574;2022-08-01T10:47:54;3.00;;;0.20;;
57752;SDS011;43583;53.132;6.574;2022-08-01T11:00:47;3.33;;;0.30;;
57752;SDS011;43583;53.132;6.574;2022-08-01T11:03:13;3.00;;;0.10;;
57752;SDS011;43583;53.132;6.574;2022-08-01T11:05:38;4.55;;;0.22;;
57752;SDS011;43583;53.132;6.574;2022-08-01T11:08:26;3.88;;;0.17;;
57752;SDS011;43583;53.132;6.574;2022-08-01T11:10:59;3.20;;;0.10;;
57752;SDS011;43583;53.132;6.574;2022-08-01T11:16:29;4.63;;;0.10;;
57752;SDS011;43583;53.132;6.574;2022-08-01T11:18:57;3.75;;;0.20;;
57752;SDS011;43583;53.132;6.574;2022-08-01T11:21:54;1.38;;;0.15;;
57752;SDS011;43583;53.132;6.574;2022-08-01T11:27:21;2.85;;;0.40;;
57752;SDS011;43583;53.132;6.574;2022-08-01T11:30:31;2.05;;;0.30;;
57752;SDS011;43583;53.132;6.574;2022-08-01T11:32:47;2.35;;;0.10;;
57752;SDS011;43583;53.132;6.574;2022-08-01T11:35:14;3.58;;;0.30;;
57752;SDS011;43583;53.132;6.574;2022-08-01T11:37:40;1.17;;;0.10;;
57752;SDS011;43583;53.132;6.574;2022-08-01T11:40:19;2.17;;;0.10;;
57752;SDS011;43583;53.132;6.574;2022-08-01T11:42:48;1.23;;;0.20;;
57752;SDS011;43583;53.132;6.574;2022-08-01T11:45:14;2.97;;;0.20;;
57752;SDS011;43583;53.132;6.574;2022-08-01T11:47:50;4.68;;;0.32;;
57752;SDS011;43583;53.132;6.574;2022-08-01T11:53:01;4.38;;;0.52;;
57752;SDS011;43583;53.132;6.574;2022-08-01T11:55:32;2.97;;;0.20;;
57752;SDS011;43583;53.132;6.574;2022-08-01T11:58:00;4.40;;;0.20;;
57752;SDS011;43583;53.132;6.574;2022-08-01T12:00:30;2.92;;;0.30;;
57752;SDS011;43583;53.132;6.574;2022-08-01T12:02:58;1.55;;;0.10;;
57752;SDS011;43583;53.132;6.574;2022-08-01T12:05:32;1.88;;;0.20;;
57752;SDS011;43583;53.132;6.574;2022-08-01T12:08:00;3.38;;;0.20;;
57752;SDS011;43583;53.132;6.574;2022-08-01T12:10:27;2.55;;;0.30;;
57752;SDS011;43583;53.132;6.574;2022-08-01T12:13:02;5.82;;;0.80;;
57752;SDS011;43583;53.132;6.574;2022-08-01T12:15:30;1.50;;;0.40;;
57752;SDS011;43583;53.132;6.574;2022-08-01T12:17:58;2.67;;;0.30;;
57752;SDS011;43583;53.132;6.574;2022-08-01T12:20:26;3.78;;;0.35;;
57752;SDS011;43583;53.132;6.574;2022-08-01T12:22:54;2.75;;;0.25;;
57752;SDS011;43583;53.132;6.574;2022-08-01T12:25:21;4.15;;;0.20;;
57752;SDS011;43583;53.132;6.574;2022-08-01T12:27:47;2.53;;;0.20;;
57752;SDS011;43583;53.132;6.574;2022-08-01T12:30:15;5.45;;;0.20;;
57752;SDS011;43583;53.132;6.574;2022-08-01T12:32:43;2.85;;;0.20;;
57752;SDS011;43583;53.132;6.574;2022-08-01T12:35:13;1.02;;;0.10;;
57752;SDS011;43583;53.132;6.574;2022-08-01T12:37:42;2.92;;;0.20;;
57752;SDS011;43583;53.132;6.574;2022-08-01T12:40:11;2.38;;;0.13;;
57752;SDS011;43583;53.132;6.574;2022-08-01T12:42:52;2.72;;;0.20;;
57752;SDS011;43583;53.132;6.574;2022-08-01T12:45:22;4.07;;;0.10;;
57752;SDS011;43583;53.132;6.574;2022-08-01T12:47:50;2.47;;;0.10;;
57752;SDS011;43583;53.132;6.574;2022-08-01T12:50:21;2.97;;;0.68;;
57752;SDS011;43583;53.132;6.574;2022-08-01T12:52:48;4.38;;;0.25;;
57752;SDS011;43583;53.132;6.574;2022-08-01T12:55:18;4.13;;;0.13;;
57752;SDS011;43583;53.132;6.574;2022-08-01T12:57:49;2.03;;;0.20;;
57752;SDS011;43583;53.132;6.574;2022-08-01T13:00:27;1.83;;;0.10;;
57752;SDS011;43583;53.132;6.574;2022-08-01T13:03:01;1.83;;;0.10;;
57752;SDS011;43583;53.132;6.574;2022-08-01T13:05:40;3.10;;;0.32;;
57752;SDS011;43583;53.132;6.574;2022-08-01T13:08:11;2.30;;;0.32;;
57752;SDS011;43583;53.132;6.574;2022-08-01T13:10:37;2.45;;;0.15;;
57752;SDS011;43583;53.132;6.574;2022-08-01T13:13:04;3.95;;;0.40;;
57752;SDS011;43583;53.132;6.574;2022-08-01T13:15:34;4.03;;;0.32;;
57752;SDS011;43583;53.132;6.574;2022-08-01T13:18:21;3.70;;;0.30;;
57752;SDS011;43583;53.132;6.574;2022-08-01T13:29:07;3.80;;;0.20;;
57752;SDS011;43583;53.132;6.574;2022-08-01T13:31:36;3.08;;;0.20;;
57752;SDS011;43583;53.132;6.574;2022-08-01T13:34:03;4.82;;;0.50;;
57752;SDS011;43583;53.132;6.574;2022-08-01T13:36:29;2.17;;;0.28;;
57752;SDS011;43583;53.132;6.574;2022-08-01T13:38:56;1.98;;;0.10;;
57752;SDS011;43583;53.132;6.574;2022-08-01T13:41:41;3.78;;;0.30;;
57752;SDS011;43583;53.132;6.574;2022-08-01T13:44:06;2.10;;;0.20;;
57752;SDS011;43583;53.132;6.574;2022-08-01T13:46:34;1.40;;;0.30;;
57752;SDS011;43583;53.132;6.574;2022-08-01T13:49:01;1.90;;;0.10;;
57752;SDS011;43583;53.132;6.574;2022-08-01T13:51:27;5.38;;;0.30;;
57752;SDS011;43583;53.132;6.574;2022-08-01T13:53:56;5.43;;;1.00;;
57752;SDS011;43583;53.132;6.574;2022-08-01T13:56:22;2.58;;;0.10;;
57752;SDS011;43583;53.132;6.574;2022-08-01T13:58:48;8.68;;;0.28;;
57752;SDS011;43583;53.132;6.574;2022-08-01T14:01:13;6.13;;;0.30;;
57752;SDS011;43583;53.132;6.574;2022-08-01T14:03:39;1.20;;;0.20;;
57752;SDS011;43583;53.132;6.574;2022-08-01T14:06:05;3.97;;;0.20;;
57752;SDS011;43583;53.132;6.574;2022-08-01T14:08:30;4.45;;;0.20;;
57752;SDS011;43583;53.132;6.574;2022-08-01T14:10:56;2.65;;;0.32;;
57752;SDS011;43583;53.132;6.574;2022-08-01T14:13:23;4.82;;;0.60;;
57752;SDS011;43583;53.132;6.574;2022-08-01T14:15:50;4.10;;;0.22;;
57752;SDS011;43583;53.132;6.574;2022-08-01T14:18:16;2.60;;;0.10;;
57752;SDS011;43583;53.132;6.574;2022-08-01T14:20:42;3.58;;;0.25;;
57752;SDS011;43583;53.132;6.574;2022-08-01T14:23:08;3.92;;;0.20;;
57752;SDS011;43583;53.132;6.574;2022-08-01T14:25:34;3.20;;;0.20;;
57752;SDS011;43583;53.132;6.574;2022-08-01T14:28:00;3.92;;;0.10;;
57752;SDS011;43583;53.132;6.574;2022-08-01T14:30:26;4.43;;;0.10;;
57752;SDS011;43583;53.132;6.574;2022-08-01T14:32:51;2.83;;;0.10;;
57752;SDS011;43583;53.132;6.574;2022-08-01T14:35:17;3.40;;;0.20;;
57752;SDS011;43583;53.132;6.574;2022-08-01T14:37:42;3.35;;;0.30;;
57752;SDS011;43583;53.132;6.574;2022-08-01T14:40:08;3.70;;;0.20;;
57752;SDS011;43583;53.132;6.574;2022-08-01T14:42:35;1.60;;;0.20;;
57752;SDS011;43583;53.132;6.574;2022-08-01T14:45:01;3.28;;;0.10;;
57752;SDS011;43583;53.132;6.574;2022-08-01T14:47:27;3.22;;;0.52;;
57752;SDS011;43583;53.132;6.574;2022-08-01T14:49:53;1.27;;;0.10;;
57752;SDS011;43583;53.132;6.574;2022-08-01T14:52:18;3.47;;;0.20;;
57752;SDS011;43583;53.132;6.574;2022-08-01T14:54:44;4.88;;;0.20;;
57752;SDS011;43583;53.132;6.574;2022-08-01T14:57:10;2.17;;;0.20;;
57752;SDS011;43583;53.132;6.574;2022-08-01T14:59:35;1.20;;;0.10;;
57752;SDS011;43583;53.132;6.574;2022-08-01T15:02:01;1.85;;;0.28;;
57752;SDS011;43583;53.132;6.574;2022-08-01T15:04:26;3.38;;;0.47;;
57752;SDS011;43583;53.132;6.574;2022-08-01T15:06:52;1.23;;;0.10;;
57752;SDS011;43583;53.132;6.574;2022-08-01T15:09:18;3.78;;;0.50;;
57752;SDS011;43583;53.132;6.574;2022-08-01T15:11:44;2.05;;;0.20;;
57752;SDS011;43583;53.132;6.574;2022-08-01T15:14:11;3.35;;;0.20;;
57752;SDS011;43583;53.132;6.574;2022-08-01T15:16:56;3.17;;;0.13;;
57752;SDS011;43583;53.132;6.574;2022-08-01T15:19:21;0.98;;;0.15;;
57752;SDS011;43583;53.132;6.574;2022-08-01T15:21:47;3.58;;;0.20;;
57752;SDS011;43583;53.132;6.574;2022-08-01T15:24:12;2.90;;;0.35;;
57752;SDS011;43583;53.132;6.574;2022-08-01T15:26:38;3.65;;;0.50;;
57752;SDS011;43583;53.132;6.574;2022-08-01T15:29:04;5.07;;;0.30;;
57752;SDS011;43583;53.132;6.574;2022-08-01T15:31:29;3.22;;;0.47;;
57752;SDS011;43583;53.132;6.574;2022-08-01T15:33:55;6.30;;;0.50;;
57752;SDS011;43583;53.132;6.574;2022-08-01T15:36:21;3.17;;;0.30;;